sensor_id;sensor_type;location;lat;lon;timestamp;temperature;humidity
31747;DHT22;18319;48.974;8.462;2022-07-09T00:00:12;15.60;37.30
31747;DHT22;18319;48.974;8.462;2022-07-09T00:02:40;15.60;37.30
31747;DHT22;18319;48.974;8.462;2022-07-09T00:05:09;15.50;37.30
31747;DHT22;18319;48.974;8.462;2022-07-09T00:07:37;15.50;37.80
31747;DHT22;18319;48.974;8.462;2022-07-09T00:10:05;15.50;37.70
31747;DHT22;18319;48.974;8.462;2022-07-09T00:12:34;15.40;37.70
31747;DHT22;18319;48.974;8.462;2022-07-09T00:15:03;15.40;37.70
31747;DHT22;18319;48.974;8.462;2022-07-09T00:17:32;15.40;37.50
31747;DHT22;18319;48.974;8.462;2022-07-09T00:19:59;15.40;37.90
31747;DHT22;18319;48.974;8.462;2022-07-09T00:22:28;15.40;37.90
31747;DHT22;18319;48.974;8.462;2022-07-09T00:24:55;15.40;38.10
31747;DHT22;18319;48.974;8.462;2022-07-09T00:27:22;15.30;38.10
31747;DHT22;18319;48.974;8.462;2022-07-09T00:29:50;15.30;38.50
31747;DHT22;18319;48.974;8.462;2022-07-09T00:32:17;15.30;38.70
31747;DHT22;18319;48.974;8.462;2022-07-09T00:34:44;15.30;38.90
31747;DHT22;18319;48.974;8.462;2022-07-09T00:37:11;15.30;39.10
31747;DHT22;18319;48.974;8.462;2022-07-09T00:39:39;15.30;39.40
31747;DHT22;18319;48.974;8.462;2022-07-09T00:42:10;15.20;39.50
31747;DHT22;18319;48.974;8.462;2022-07-09T00:44:45;15.20;39.80
31747;DHT22;18319;48.974;8.462;2022-07-09T00:47:15;15.20;40.00
31747;DHT22;18319;48.974;8.462;2022-07-09T00:49:48;15.10;39.80
31747;DHT22;18319;48.974;8.462;2022-07-09T00:52:15;15.00;39.60
31747;DHT22;18319;48.974;8.462;2022-07-09T00:54:43;15.00;40.00
31747;DHT22;18319;48.974;8.462;2022-07-09T00:57:11;15.00;40.20
31747;DHT22;18319;48.974;8.462;2022-07-09T00:59:39;14.90;40.30
31747;DHT22;18319;48.974;8.462;2022-07-09T01:02:07;14.90;40.30
31747;DHT22;18319;48.974;8.462;2022-07-09T01:04:35;14.90;40.40
31747;DHT22;18319;48.974;8.462;2022-07-09T01:07:05;14.80;40.60
31747;DHT22;18319;48.974;8.462;2022-07-09T01:09:35;14.90;40.90
31747;DHT22;18319;48.974;8.462;2022-07-09T01:12:03;14.80;41.30
31747;DHT22;18319;48.974;8.462;2022-07-09T01:14:35;14.80;41.80
31747;DHT22;18319;48.974;8.462;2022-07-09T01:17:04;14.80;42.30
31747;DHT22;18319;48.974;8.462;2022-07-09T01:19:32;14.70;42.50
31747;DHT22;18319;48.974;8.462;2022-07-09T01:22:04;14.70;42.60
31747;DHT22;18319;48.974;8.462;2022-07-09T01:24:31;14.70;43.00
31747;DHT22;18319;48.974;8.462;2022-07-09T01:26:58;14.70;43.10
31747;DHT22;18319;48.974;8.462;2022-07-09T01:29:25;14.70;43.30
31747;DHT22;18319;48.974;8.462;2022-07-09T01:31:52;14.60;43.80
31747;DHT22;18319;48.974;8.462;2022-07-09T01:34:19;14.60;44.00
31747;DHT22;18319;48.974;8.462;2022-07-09T01:36:46;14.60;44.30
31747;DHT22;18319;48.974;8.462;2022-07-09T01:39:14;14.50;44.50
31747;DHT22;18319;48.974;8.462;2022-07-09T01:41:49;14.50;44.90
31747;DHT22;18319;48.974;8.462;2022-07-09T01:44:15;14.50;45.20
31747;DHT22;18319;48.974;8.462;2022-07-09T01:46:43;14.50;45.20
31747;DHT22;18319;48.974;8.462;2022-07-09T01:49:10;14.50;45.30
31747;DHT22;18319;48.974;8.462;2022-07-09T01:51:37;14.50;45.60
31747;DHT22;18319;48.974;8.462;2022-07-09T01:54:04;14.50;45.60
31747;DHT22;18319;48.974;8.462;2022-07-09T01:56:32;14.40;45.50
31747;DHT22;18319;48.974;8.462;2022-07-09T01:59:00;14.40;45.50
31747;DHT22;18319;48.974;8.462;2022-07-09T02:01:27;14.40;45.60
31747;DHT22;18319;48.974;8.462;2022-07-09T02:03:54;14.40;45.60
31747;DHT22;18319;48.974;8.462;2022-07-09T02:06:21;14.40;46.00
31747;DHT22;18319;48.974;8.462;2022-07-09T02:08:48;14.30;46.10
31747;DHT22;18319;48.974;8.462;2022-07-09T02:11:14;14.30;46.40
31747;DHT22;18319;48.974;8.462;2022-07-09T02:13:43;14.30;46.70
31747;DHT22;18319;48.974;8.462;2022-07-09T02:16:09;14.30;47.00
31747;DHT22;18319;48.974;8.462;2022-07-09T02:18:37;14.20;47.00
31747;DHT22;18319;48.974;8.462;2022-07-09T02:21:04;14.20;47.30
31747;DHT22;18319;48.974;8.462;2022-07-09T02:23:32;14.20;47.60
31747;DHT22;18319;48.974;8.462;2022-07-09T02:25:59;14.20;47.70
31747;DHT22;18319;48.974;8.462;2022-07-09T02:28:26;14.20;47.90
31747;DHT22;18319;48.974;8.462;2022-07-09T02:30:57;14.20;48.40
31747;DHT22;18319;48.974;8.462;2022-07-09T02:33:24;14.20;48.80
31747;DHT22;18319;48.974;8.462;2022-07-09T02:35:51;14.20;49.10
31747;DHT22;18319;48.974;8.462;2022-07-09T02:38:25;14.20;49.30
31747;DHT22;18319;48.974;8.462;2022-07-09T02:40:53;14.20;49.40
31747;DHT22;18319;48.974;8.462;2022-07-09T02:43:20;14.20;49.30
31747;DHT22;18319;48.974;8.462;2022-07-09T02:45:49;14.20;49.30
31747;DHT22;18319;48.974;8.462;2022-07-09T02:48:20;14.10;49.50
31747;DHT22;18319;48.974;8.462;2022-07-09T02:50:48;14.10;49.70
31747;DHT22;18319;48.974;8.462;2022-07-09T02:53:15;14.10;50.30
31747;DHT22;18319;48.974;8.462;2022-07-09T02:55:42;14.10;50.90
31747;DHT22;18319;48.974;8.462;2022-07-09T02:58:08;14.00;51.30
31747;DHT22;18319;48.974;8.462;2022-07-09T03:00:35;14.10;51.70
31747;DHT22;18319;48.974;8.462;2022-07-09T03:03:05;14.00;52.20
31747;DHT22;18319;48.974;8.462;2022-07-09T03:05:33;14.00;52.50
31747;DHT22;18319;48.974;8.462;2022-07-09T03:08:04;14.00;52.80
31747;DHT22;18319;48.974;8.462;2022-07-09T03:10:37;14.00;53.40
31747;DHT22;18319;48.974;8.462;2022-07-09T03:13:04;14.00;53.70
31747;DHT22;18319;48.974;8.462;2022-07-09T03:15:30;14.00;53.70
31747;DHT22;18319;48.974;8.462;2022-07-09T03:18:01;14.00;53.80
31747;DHT22;18319;48.974;8.462;2022-07-09T03:20:28;14.00;54.10
31747;DHT22;18319;48.974;8.462;2022-07-09T03:22:56;14.00;54.60
31747;DHT22;18319;48.974;8.462;2022-07-09T03:25:23;14.00;55.00
31747;DHT22;18319;48.974;8.462;2022-07-09T03:27:52;14.00;55.10
31747;DHT22;18319;48.974;8.462;2022-07-09T03:30:19;14.00;55.60
31747;DHT22;18319;48.974;8.462;2022-07-09T03:32:46;14.00;55.70
31747;DHT22;18319;48.974;8.462;2022-07-09T03:35:13;14.00;55.90
31747;DHT22;18319;48.974;8.462;2022-07-09T03:37:41;14.00;56.90
31747;DHT22;18319;48.974;8.462;2022-07-09T03:40:11;14.00;57.00
31747;DHT22;18319;48.974;8.462;2022-07-09T03:42:38;14.00;57.10
31747;DHT22;18319;48.974;8.462;2022-07-09T03:45:06;14.10;57.40
31747;DHT22;18319;48.974;8.462;2022-07-09T03:47:36;14.10;57.80
31747;DHT22;18319;48.974;8.462;2022-07-09T03:50:04;14.10;58.00
31747;DHT22;18319;48.974;8.462;2022-07-09T03:52:37;14.10;58.20
31747;DHT22;18319;48.974;8.462;2022-07-09T03:55:05;14.20;58.40
31747;DHT22;18319;48.974;8.462;2022-07-09T03:57:33;14.10;58.60
31747;DHT22;18319;48.974;8.462;2022-07-09T04:00:01;14.20;58.70
31747;DHT22;18319;48.974;8.462;2022-07-09T04:02:28;14.20;58.50
31747;DHT22;18319;48.974;8.462;2022-07-09T04:04:55;14.20;58.40
31747;DHT22;18319;48.974;8.462;2022-07-09T04:07:34;14.20;58.40
31747;DHT22;18319;48.974;8.462;2022-07-09T04:10:02;14.20;58.20
31747;DHT22;18319;48.974;8.462;2022-07-09T04:12:28;14.20;58.40
31747;DHT22;18319;48.974;8.462;2022-07-09T04:14:56;14.30;58.10
31747;DHT22;18319;48.974;8.462;2022-07-09T04:17:23;14.30;57.50
31747;DHT22;18319;48.974;8.462;2022-07-09T04:19:50;14.30;57.20
31747;DHT22;18319;48.974;8.462;2022-07-09T04:22:17;14.30;56.80
31747;DHT22;18319;48.974;8.462;2022-07-09T04:24:44;14.30;57.00
31747;DHT22;18319;48.974;8.462;2022-07-09T04:27:10;14.40;57.10
31747;DHT22;18319;48.974;8.462;2022-07-09T04:29:39;14.40;57.20
31747;DHT22;18319;48.974;8.462;2022-07-09T04:32:09;14.40;57.20
31747;DHT22;18319;48.974;8.462;2022-07-09T04:34:36;14.50;57.40
31747;DHT22;18319;48.974;8.462;2022-07-09T04:37:04;14.50;57.70
31747;DHT22;18319;48.974;8.462;2022-07-09T04:39:31;14.60;57.90
31747;DHT22;18319;48.974;8.462;2022-07-09T04:42:01;14.70;58.00
31747;DHT22;18319;48.974;8.462;2022-07-09T04:44:28;14.70;58.30
31747;DHT22;18319;48.974;8.462;2022-07-09T04:46:54;14.80;58.30
31747;DHT22;18319;48.974;8.462;2022-07-09T04:49:23;14.80;58.30
31747;DHT22;18319;48.974;8.462;2022-07-09T04:51:50;14.90;58.40
31747;DHT22;18319;48.974;8.462;2022-07-09T04:54:16;14.90;58.50
31747;DHT22;18319;48.974;8.462;2022-07-09T04:56:44;14.90;58.50
31747;DHT22;18319;48.974;8.462;2022-07-09T04:59:10;15.00;58.70
31747;DHT22;18319;48.974;8.462;2022-07-09T05:01:39;15.10;58.80
31747;DHT22;18319;48.974;8.462;2022-07-09T05:04:06;15.20;58.50
31747;DHT22;18319;48.974;8.462;2022-07-09T05:06:34;15.30;58.20
31747;DHT22;18319;48.974;8.462;2022-07-09T05:09:01;15.30;58.20
31747;DHT22;18319;48.974;8.462;2022-07-09T05:11:28;15.40;58.10
31747;DHT22;18319;48.974;8.462;2022-07-09T05:13:55;15.50;56.80
31747;DHT22;18319;48.974;8.462;2022-07-09T05:16:23;15.60;56.00
31747;DHT22;18319;48.974;8.462;2022-07-09T05:18:50;15.70;54.80
31747;DHT22;18319;48.974;8.462;2022-07-09T05:21:17;15.80;53.50
31747;DHT22;18319;48.974;8.462;2022-07-09T05:23:45;15.80;53.10
31747;DHT22;18319;48.974;8.462;2022-07-09T05:26:12;16.00;53.50
31747;DHT22;18319;48.974;8.462;2022-07-09T05:28:39;16.10;53.40
31747;DHT22;18319;48.974;8.462;2022-07-09T05:31:05;16.10;52.80
31747;DHT22;18319;48.974;8.462;2022-07-09T05:33:32;16.20;52.30
31747;DHT22;18319;48.974;8.462;2022-07-09T05:35:59;16.40;52.70
31747;DHT22;18319;48.974;8.462;2022-07-09T05:38:26;16.40;52.20
31747;DHT22;18319;48.974;8.462;2022-07-09T05:40:54;16.50;52.40
31747;DHT22;18319;48.974;8.462;2022-07-09T05:43:25;16.60;52.00
31747;DHT22;18319;48.974;8.462;2022-07-09T05:45:51;16.80;49.50
31747;DHT22;18319;48.974;8.462;2022-07-09T05:48:19;16.80;50.90
31747;DHT22;18319;48.974;8.462;2022-07-09T05:50:49;16.90;49.90
31747;DHT22;18319;48.974;8.462;2022-07-09T05:53:16;16.90;50.10
31747;DHT22;18319;48.974;8.462;2022-07-09T05:55:43;17.00;49.60
31747;DHT22;18319;48.974;8.462;2022-07-09T05:58:19;17.00;48.80
31747;DHT22;18319;48.974;8.462;2022-07-09T06:00:45;17.10;47.90
31747;DHT22;18319;48.974;8.462;2022-07-09T06:03:12;17.20;47.80
31747;DHT22;18319;48.974;8.462;2022-07-09T06:05:39;17.30;47.60
31747;DHT22;18319;48.974;8.462;2022-07-09T06:08:08;17.50;48.00
31747;DHT22;18319;48.974;8.462;2022-07-09T06:10:39;17.60;48.20
31747;DHT22;18319;48.974;8.462;2022-07-09T06:13:06;17.60;47.50
31747;DHT22;18319;48.974;8.462;2022-07-09T06:15:37;17.80;47.80
31747;DHT22;18319;48.974;8.462;2022-07-09T06:18:04;17.80;48.10
31747;DHT22;18319;48.974;8.462;2022-07-09T06:20:32;17.90;47.20
31747;DHT22;18319;48.974;8.462;2022-07-09T06:22:59;18.00;47.20
31747;DHT22;18319;48.974;8.462;2022-07-09T06:25:26;18.00;46.40
31747;DHT22;18319;48.974;8.462;2022-07-09T06:27:53;18.00;45.90
31747;DHT22;18319;48.974;8.462;2022-07-09T06:30:20;18.00;45.90
31747;DHT22;18319;48.974;8.462;2022-07-09T06:32:53;18.00;46.50
31747;DHT22;18319;48.974;8.462;2022-07-09T06:35:20;18.00;47.00
31747;DHT22;18319;48.974;8.462;2022-07-09T06:37:47;18.00;46.40
31747;DHT22;18319;48.974;8.462;2022-07-09T06:40:14;18.10;47.60
31747;DHT22;18319;48.974;8.462;2022-07-09T06:42:41;18.10;46.30
31747;DHT22;18319;48.974;8.462;2022-07-09T06:45:10;18.10;46.80
31747;DHT22;18319;48.974;8.462;2022-07-09T06:47:36;18.20;48.00
31747;DHT22;18319;48.974;8.462;2022-07-09T06:50:05;18.30;46.60
31747;DHT22;18319;48.974;8.462;2022-07-09T06:52:32;18.30;46.20
31747;DHT22;18319;48.974;8.462;2022-07-09T06:54:59;18.30;46.50
31747;DHT22;18319;48.974;8.462;2022-07-09T06:57:25;18.30;45.50
31747;DHT22;18319;48.974;8.462;2022-07-09T06:59:54;18.30;46.60
31747;DHT22;18319;48.974;8.462;2022-07-09T07:02:21;18.30;47.20
31747;DHT22;18319;48.974;8.462;2022-07-09T07:04:49;18.30;46.20
31747;DHT22;18319;48.974;8.462;2022-07-09T07:07:17;18.30;46.80
31747;DHT22;18319;48.974;8.462;2022-07-09T07:09:46;18.30;47.20
31747;DHT22;18319;48.974;8.462;2022-07-09T07:12:13;18.40;47.00
31747;DHT22;18319;48.974;8.462;2022-07-09T07:14:40;18.40;46.70
31747;DHT22;18319;48.974;8.462;2022-07-09T07:17:08;18.50;47.60
31747;DHT22;18319;48.974;8.462;2022-07-09T07:19:35;18.60;47.40
31747;DHT22;18319;48.974;8.462;2022-07-09T07:22:03;18.70;46.70
31747;DHT22;18319;48.974;8.462;2022-07-09T07:24:31;18.90;46.50
31747;DHT22;18319;48.974;8.462;2022-07-09T07:26:59;18.90;46.30
31747;DHT22;18319;48.974;8.462;2022-07-09T07:29:26;19.00;45.60
31747;DHT22;18319;48.974;8.462;2022-07-09T07:31:53;19.00;45.10
31747;DHT22;18319;48.974;8.462;2022-07-09T07:34:23;19.00;45.60
31747;DHT22;18319;48.974;8.462;2022-07-09T07:36:52;19.10;45.70
31747;DHT22;18319;48.974;8.462;2022-07-09T07:39:19;19.10;45.20
31747;DHT22;18319;48.974;8.462;2022-07-09T07:41:49;19.10;44.80
31747;DHT22;18319;48.974;8.462;2022-07-09T07:44:18;19.30;44.90
31747;DHT22;18319;48.974;8.462;2022-07-09T07:46:46;19.40;44.10
31747;DHT22;18319;48.974;8.462;2022-07-09T07:49:15;19.80;44.70
31747;DHT22;18319;48.974;8.462;2022-07-09T07:51:44;20.40;42.50
31747;DHT22;18319;48.974;8.462;2022-07-09T07:54:11;21.20;40.60
31747;DHT22;18319;48.974;8.462;2022-07-09T07:56:39;22.10;37.80
31747;DHT22;18319;48.974;8.462;2022-07-09T07:59:10;23.10;34.00
31747;DHT22;18319;48.974;8.462;2022-07-09T08:01:37;24.50;31.40
31747;DHT22;18319;48.974;8.462;2022-07-09T08:04:06;25.50;28.00
31747;DHT22;18319;48.974;8.462;2022-07-09T08:06:33;26.70;25.70
31747;DHT22;18319;48.974;8.462;2022-07-09T08:09:01;27.40;24.00
31747;DHT22;18319;48.974;8.462;2022-07-09T08:11:31;28.00;21.30
31747;DHT22;18319;48.974;8.462;2022-07-09T08:13:59;28.70;21.00
31747;DHT22;18319;48.974;8.462;2022-07-09T08:16:28;29.20;18.90
31747;DHT22;18319;48.974;8.462;2022-07-09T08:18:55;29.70;18.90
31747;DHT22;18319;48.974;8.462;2022-07-09T08:21:25;30.10;17.30
31747;DHT22;18319;48.974;8.462;2022-07-09T08:23:53;30.30;16.50
31747;DHT22;18319;48.974;8.462;2022-07-09T08:26:22;30.60;16.00
31747;DHT22;18319;48.974;8.462;2022-07-09T08:28:50;31.00;15.00
31747;DHT22;18319;48.974;8.462;2022-07-09T08:31:19;31.20;14.40
31747;DHT22;18319;48.974;8.462;2022-07-09T08:33:47;31.50;15.10
31747;DHT22;18319;48.974;8.462;2022-07-09T08:36:15;31.60;14.30
31747;DHT22;18319;48.974;8.462;2022-07-09T08:38:42;31.50;14.00
31747;DHT22;18319;48.974;8.462;2022-07-09T08:41:09;31.60;12.50
31747;DHT22;18319;48.974;8.462;2022-07-09T08:43:37;31.40;13.70
31747;DHT22;18319;48.974;8.462;2022-07-09T08:46:05;31.40;12.40
31747;DHT22;18319;48.974;8.462;2022-07-09T08:48:33;31.60;12.10
31747;DHT22;18319;48.974;8.462;2022-07-09T08:51:02;31.70;11.20
31747;DHT22;18319;48.974;8.462;2022-07-09T08:53:29;31.60;12.10
31747;DHT22;18319;48.974;8.462;2022-07-09T08:55:57;31.70;10.90
31747;DHT22;18319;48.974;8.462;2022-07-09T08:58:24;31.70;11.20
31747;DHT22;18319;48.974;8.462;2022-07-09T09:00:52;31.70;11.20
31747;DHT22;18319;48.974;8.462;2022-07-09T09:03:23;31.70;13.50
31747;DHT22;18319;48.974;8.462;2022-07-09T09:06:03;31.60;13.80
31747;DHT22;18319;48.974;8.462;2022-07-09T09:08:34;31.50;12.50
31747;DHT22;18319;48.974;8.462;2022-07-09T09:11:02;31.50;10.20
31747;DHT22;18319;48.974;8.462;2022-07-09T09:13:36;31.40;10.30
31747;DHT22;18319;48.974;8.462;2022-07-09T09:16:04;31.60;13.00
31747;DHT22;18319;48.974;8.462;2022-07-09T09:18:34;31.50;11.00
31747;DHT22;18319;48.974;8.462;2022-07-09T09:21:04;31.20;11.60
31747;DHT22;18319;48.974;8.462;2022-07-09T09:23:41;31.10;11.80
31747;DHT22;18319;48.974;8.462;2022-07-09T09:26:10;31.10;12.70
31747;DHT22;18319;48.974;8.462;2022-07-09T09:28:46;30.90;12.60
31747;DHT22;18319;48.974;8.462;2022-07-09T09:31:24;30.70;11.90
31747;DHT22;18319;48.974;8.462;2022-07-09T09:33:53;30.70;14.30
31747;DHT22;18319;48.974;8.462;2022-07-09T09:36:32;30.70;11.90
31747;DHT22;18319;48.974;8.462;2022-07-09T09:39:16;30.80;14.40
31747;DHT22;18319;48.974;8.462;2022-07-09T09:41:45;30.60;12.60
31747;DHT22;18319;48.974;8.462;2022-07-09T09:44:14;30.50;13.00
31747;DHT22;18319;48.974;8.462;2022-07-09T09:46:45;30.50;12.50
31747;DHT22;18319;48.974;8.462;2022-07-09T09:49:13;30.40;12.50
31747;DHT22;18319;48.974;8.462;2022-07-09T09:51:51;30.40;13.20
31747;DHT22;18319;48.974;8.462;2022-07-09T09:54:21;30.30;13.70
31747;DHT22;18319;48.974;8.462;2022-07-09T09:56:49;30.40;12.40
31747;DHT22;18319;48.974;8.462;2022-07-09T09:59:17;30.50;15.10
31747;DHT22;18319;48.974;8.462;2022-07-09T10:01:45;30.50;12.30
31747;DHT22;18319;48.974;8.462;2022-07-09T10:04:15;30.30;12.40
31747;DHT22;18319;48.974;8.462;2022-07-09T10:06:43;30.00;12.40
31747;DHT22;18319;48.974;8.462;2022-07-09T10:09:15;29.60;11.80
31747;DHT22;18319;48.974;8.462;2022-07-09T10:11:42;29.50;12.90
31747;DHT22;18319;48.974;8.462;2022-07-09T10:14:31;29.50;13.90
31747;DHT22;18319;48.974;8.462;2022-07-09T10:17:10;29.60;14.30
31747;DHT22;18319;48.974;8.462;2022-07-09T10:19:49;29.30;15.90
31747;DHT22;18319;48.974;8.462;2022-07-09T10:22:16;28.80;13.20
31747;DHT22;18319;48.974;8.462;2022-07-09T10:24:46;28.60;15.70
31747;DHT22;18319;48.974;8.462;2022-07-09T10:27:13;28.70;14.90
31747;DHT22;18319;48.974;8.462;2022-07-09T10:29:58;28.80;16.20
31747;DHT22;18319;48.974;8.462;2022-07-09T10:32:26;29.10;13.80
31747;DHT22;18319;48.974;8.462;2022-07-09T10:34:57;29.30;13.00
31747;DHT22;18319;48.974;8.462;2022-07-09T10:37:35;29.10;14.20
31747;DHT22;18319;48.974;8.462;2022-07-09T10:40:12;28.70;16.50
31747;DHT22;18319;48.974;8.462;2022-07-09T10:42:41;28.20;17.10
31747;DHT22;18319;48.974;8.462;2022-07-09T10:45:22;27.70;16.50
31747;DHT22;18319;48.974;8.462;2022-07-09T10:47:56;27.40;18.00
31747;DHT22;18319;48.974;8.462;2022-07-09T10:50:24;27.00;19.20
31747;DHT22;18319;48.974;8.462;2022-07-09T10:52:52;26.60;19.70
31747;DHT22;18319;48.974;8.462;2022-07-09T10:55:22;26.40;20.50
31747;DHT22;18319;48.974;8.462;2022-07-09T10:57:49;26.30;19.50
31747;DHT22;18319;48.974;8.462;2022-07-09T11:00:19;26.40;20.20
31747;DHT22;18319;48.974;8.462;2022-07-09T11:02:57;26.50;21.50
31747;DHT22;18319;48.974;8.462;2022-07-09T11:05:25;26.70;19.50
31747;DHT22;18319;48.974;8.462;2022-07-09T11:07:57;26.60;19.00
31747;DHT22;18319;48.974;8.462;2022-07-09T11:10:28;26.30;17.00
31747;DHT22;18319;48.974;8.462;2022-07-09T11:12:56;26.00;17.40
31747;DHT22;18319;48.974;8.462;2022-07-09T11:15:25;26.00;19.40
31747;DHT22;18319;48.974;8.462;2022-07-09T11:17:58;25.80;19.30
31747;DHT22;18319;48.974;8.462;2022-07-09T11:20:28;25.50;20.40
31747;DHT22;18319;48.974;8.462;2022-07-09T11:22:57;25.50;19.50
31747;DHT22;18319;48.974;8.462;2022-07-09T11:25:27;25.60;20.20
31747;DHT22;18319;48.974;8.462;2022-07-09T11:27:56;25.80;20.80
31747;DHT22;18319;48.974;8.462;2022-07-09T11:30:24;26.00;20.70
31747;DHT22;18319;48.974;8.462;2022-07-09T11:32:53;26.30;19.90
31747;DHT22;18319;48.974;8.462;2022-07-09T11:35:27;26.60;20.40
31747;DHT22;18319;48.974;8.462;2022-07-09T11:37:54;26.90;16.20
31747;DHT22;18319;48.974;8.462;2022-07-09T11:40:23;26.80;17.40
31747;DHT22;18319;48.974;8.462;2022-07-09T11:42:51;26.80;18.00
31747;DHT22;18319;48.974;8.462;2022-07-09T11:45:22;26.60;18.90
31747;DHT22;18319;48.974;8.462;2022-07-09T11:47:50;26.50;18.50
31747;DHT22;18319;48.974;8.462;2022-07-09T11:50:18;26.40;18.90
31747;DHT22;18319;48.974;8.462;2022-07-09T11:52:49;26.40;20.10
31747;DHT22;18319;48.974;8.462;2022-07-09T11:55:17;26.30;20.00
31747;DHT22;18319;48.974;8.462;2022-07-09T11:57:54;26.20;19.50
31747;DHT22;18319;48.974;8.462;2022-07-09T12:00:23;26.20;20.00
31747;DHT22;18319;48.974;8.462;2022-07-09T12:03:01;26.30;20.70
31747;DHT22;18319;48.974;8.462;2022-07-09T12:05:32;26.30;20.80
31747;DHT22;18319;48.974;8.462;2022-07-09T12:08:02;26.30;20.70
31747;DHT22;18319;48.974;8.462;2022-07-09T12:10:31;26.40;19.50
31747;DHT22;18319;48.974;8.462;2022-07-09T12:13:00;26.40;21.10
31747;DHT22;18319;48.974;8.462;2022-07-09T12:15:28;26.30;20.80
31747;DHT22;18319;48.974;8.462;2022-07-09T12:17:56;26.20;20.10
31747;DHT22;18319;48.974;8.462;2022-07-09T12:20:28;26.00;21.40
31747;DHT22;18319;48.974;8.462;2022-07-09T12:22:57;25.80;19.30
31747;DHT22;18319;48.974;8.462;2022-07-09T12:25:25;25.70;20.00
31747;DHT22;18319;48.974;8.462;2022-07-09T12:27:53;25.60;22.00
31747;DHT22;18319;48.974;8.462;2022-07-09T12:30:21;25.60;21.80
31747;DHT22;18319;48.974;8.462;2022-07-09T12:32:49;25.80;20.70
31747;DHT22;18319;48.974;8.462;2022-07-09T12:35:21;25.90;20.40
31747;DHT22;18319;48.974;8.462;2022-07-09T12:37:50;26.10;19.90
31747;DHT22;18319;48.974;8.462;2022-07-09T12:40:22;26.30;21.80
31747;DHT22;18319;48.974;8.462;2022-07-09T12:42:49;26.50;20.90
31747;DHT22;18319;48.974;8.462;2022-07-09T12:45:16;26.70;19.40
31747;DHT22;18319;48.974;8.462;2022-07-09T12:47:45;26.80;23.70
31747;DHT22;18319;48.974;8.462;2022-07-09T12:50:13;27.00;19.70
31747;DHT22;18319;48.974;8.462;2022-07-09T12:52:40;27.00;18.60
31747;DHT22;18319;48.974;8.462;2022-07-09T12:55:08;27.10;18.20
31747;DHT22;18319;48.974;8.462;2022-07-09T12:57:35;27.00;19.20
31747;DHT22;18319;48.974;8.462;2022-07-09T13:00:04;27.00;18.70
31747;DHT22;18319;48.974;8.462;2022-07-09T13:02:31;27.10;18.80
31747;DHT22;18319;48.974;8.462;2022-07-09T13:05:00;27.20;19.70
31747;DHT22;18319;48.974;8.462;2022-07-09T13:07:27;27.40;19.90
31747;DHT22;18319;48.974;8.462;2022-07-09T13:09:54;27.60;18.90
31747;DHT22;18319;48.974;8.462;2022-07-09T13:12:21;27.60;15.50
31747;DHT22;18319;48.974;8.462;2022-07-09T13:14:47;27.80;17.50
31747;DHT22;18319;48.974;8.462;2022-07-09T13:17:14;27.90;16.70
31747;DHT22;18319;48.974;8.462;2022-07-09T13:19:47;27.90;15.20
31747;DHT22;18319;48.974;8.462;2022-07-09T13:22:16;28.00;16.00
31747;DHT22;18319;48.974;8.462;2022-07-09T13:24:43;28.10;17.30
31747;DHT22;18319;48.974;8.462;2022-07-09T13:27:11;28.10;17.30
31747;DHT22;18319;48.974;8.462;2022-07-09T13:29:38;28.10;18.20
31747;DHT22;18319;48.974;8.462;2022-07-09T13:32:08;28.10;20.10
31747;DHT22;18319;48.974;8.462;2022-07-09T13:34:34;28.10;20.00
31747;DHT22;18319;48.974;8.462;2022-07-09T13:37:02;28.00;18.30
31747;DHT22;18319;48.974;8.462;2022-07-09T13:39:30;27.90;16.30
31747;DHT22;18319;48.974;8.462;2022-07-09T13:41:57;27.90;17.80
31747;DHT22;18319;48.974;8.462;2022-07-09T13:44:25;27.80;18.80
31747;DHT22;18319;48.974;8.462;2022-07-09T13:46:52;27.60;20.70
31747;DHT22;18319;48.974;8.462;2022-07-09T13:49:21;27.40;19.60
31747;DHT22;18319;48.974;8.462;2022-07-09T13:51:48;27.30;20.90
31747;DHT22;18319;48.974;8.462;2022-07-09T13:54:16;27.20;18.80
31747;DHT22;18319;48.974;8.462;2022-07-09T13:56:45;27.10;19.60
31747;DHT22;18319;48.974;8.462;2022-07-09T13:59:12;27.00;21.00
31747;DHT22;18319;48.974;8.462;2022-07-09T14:01:48;26.80;20.40
31747;DHT22;18319;48.974;8.462;2022-07-09T14:04:16;26.80;21.60
31747;DHT22;18319;48.974;8.462;2022-07-09T14:06:45;26.70;20.90
31747;DHT22;18319;48.974;8.462;2022-07-09T14:09:12;26.50;18.90
31747;DHT22;18319;48.974;8.462;2022-07-09T14:11:39;26.40;22.00
31747;DHT22;18319;48.974;8.462;2022-07-09T14:14:07;26.30;21.20
31747;DHT22;18319;48.974;8.462;2022-07-09T14:16:34;26.20;20.40
31747;DHT22;18319;48.974;8.462;2022-07-09T14:19:01;26.20;20.90
31747;DHT22;18319;48.974;8.462;2022-07-09T14:21:28;26.30;21.10
31747;DHT22;18319;48.974;8.462;2022-07-09T14:23:57;26.50;23.30
31747;DHT22;18319;48.974;8.462;2022-07-09T14:26:24;26.80;23.50
31747;DHT22;18319;48.974;8.462;2022-07-09T14:28:52;26.80;23.30
31747;DHT22;18319;48.974;8.462;2022-07-09T14:31:23;26.90;23.00
31747;DHT22;18319;48.974;8.462;2022-07-09T14:33:51;26.90;23.70
31747;DHT22;18319;48.974;8.462;2022-07-09T14:36:20;27.00;23.60
31747;DHT22;18319;48.974;8.462;2022-07-09T14:38:46;27.00;20.60
31747;DHT22;18319;48.974;8.462;2022-07-09T14:41:14;27.00;19.90
31747;DHT22;18319;48.974;8.462;2022-07-09T14:43:42;27.00;19.60
31747;DHT22;18319;48.974;8.462;2022-07-09T14:46:11;27.10;20.00
31747;DHT22;18319;48.974;8.462;2022-07-09T14:48:41;27.30;22.40
31747;DHT22;18319;48.974;8.462;2022-07-09T14:51:08;27.40;19.30
31747;DHT22;18319;48.974;8.462;2022-07-09T14:53:37;27.40;18.20
31747;DHT22;18319;48.974;8.462;2022-07-09T14:56:04;27.30;20.20
31747;DHT22;18319;48.974;8.462;2022-07-09T14:58:33;27.40;22.70
31747;DHT22;18319;48.974;8.462;2022-07-09T15:01:00;27.30;21.60
31747;DHT22;18319;48.974;8.462;2022-07-09T15:03:27;27.20;21.20
31747;DHT22;18319;48.974;8.462;2022-07-09T15:05:56;27.10;19.80
31747;DHT22;18319;48.974;8.462;2022-07-09T15:08:22;27.00;20.40
31747;DHT22;18319;48.974;8.462;2022-07-09T15:10:49;27.00;20.70
31747;DHT22;18319;48.974;8.462;2022-07-09T15:13:19;26.90;20.30
31747;DHT22;18319;48.974;8.462;2022-07-09T15:15:46;26.90;21.50
31747;DHT22;18319;48.974;8.462;2022-07-09T15:18:14;26.90;20.80
31747;DHT22;18319;48.974;8.462;2022-07-09T15:20:42;27.00;21.90
31747;DHT22;18319;48.974;8.462;2022-07-09T15:23:10;26.90;21.10
31747;DHT22;18319;48.974;8.462;2022-07-09T15:25:38;26.90;21.40
31747;DHT22;18319;48.974;8.462;2022-07-09T15:28:05;27.00;21.40
31747;DHT22;18319;48.974;8.462;2022-07-09T15:30:32;27.20;21.80
31747;DHT22;18319;48.974;8.462;2022-07-09T15:33:00;27.10;21.70
31747;DHT22;18319;48.974;8.462;2022-07-09T15:35:27;27.00;21.40
31747;DHT22;18319;48.974;8.462;2022-07-09T15:37:53;26.90;21.40